createdAt,value
2023-03-16T00:00:35.289Z,1.20
2023-03-16T00:03:03.620Z,1.20
2023-03-16T00:05:32.104Z,1.20
2023-03-16T00:08:00.204Z,1.20
2023-03-16T00:10:30.069Z,1.40
2023-03-16T00:12:58.665Z,1.10
2023-03-16T00:15:26.735Z,1.10
2023-03-16T00:17:54.832Z,1.70
2023-03-16T00:20:24.132Z,1.10
2023-03-16T00:22:52.260Z,1.10
2023-03-16T00:25:20.619Z,1.00
2023-03-16T00:27:50.102Z,1.00
2023-03-16T00:30:21.812Z,1.00
2023-03-16T00:32:50.008Z,1.00
2023-03-16T00:35:18.979Z,1.00
2023-03-16T00:37:47.347Z,0.90
2023-03-16T00:40:16.660Z,0.90
2023-03-16T00:42:44.633Z,0.90
2023-03-16T00:45:14.508Z,1.50
2023-03-16T00:47:43.193Z,0.90
2023-03-16T00:50:12.000Z,0.90
2023-03-16T00:52:40.308Z,0.80
2023-03-16T00:55:09.268Z,0.90
2023-03-16T00:57:37.480Z,0.80
2023-03-16T01:00:12.701Z,0.80
2023-03-16T01:02:42.538Z,0.80
2023-03-16T01:05:13.583Z,0.80
2023-03-16T01:07:44.050Z,0.70
2023-03-16T01:10:13.331Z,1.20
2023-03-16T01:12:41.455Z,0.80
2023-03-16T01:15:11.423Z,0.80
2023-03-16T01:17:41.646Z,0.70
2023-03-16T01:20:15.495Z,0.70
2023-03-16T01:22:43.564Z,0.70
2023-03-16T01:25:13.160Z,0.70
2023-03-16T01:27:43.360Z,0.70
2023-03-16T01:30:12.906Z,0.70
2023-03-16T01:32:43.298Z,0.70
2023-03-16T01:35:14.256Z,0.70
2023-03-16T01:37:42.775Z,0.70
2023-03-16T01:40:16.894Z,0.70
2023-03-16T01:42:47.435Z,0.70
2023-03-16T01:45:53.908Z,0.70
2023-03-16T01:48:27.108Z,0.70
2023-03-16T01:50:56.407Z,0.70
2023-03-16T01:53:26.927Z,0.70
2023-03-16T01:55:55.638Z,0.80
2023-03-16T01:58:24.566Z,0.70
2023-03-16T02:00:52.687Z,0.70
2023-03-16T02:03:24.933Z,0.70
2023-03-16T02:06:12.859Z,0.70
2023-03-16T02:08:48.070Z,0.70
2023-03-16T02:11:18.236Z,0.70
2023-03-16T02:13:59.538Z,0.80
2023-03-16T02:16:28.026Z,0.80
2023-03-16T02:18:57.515Z,0.80
2023-03-16T02:21:33.226Z,0.90
2023-03-16T02:24:03.706Z,0.90
2023-03-16T02:26:38.046Z,0.90
2023-03-16T02:29:29.876Z,0.90
2023-03-16T02:32:02.760Z,1.00
2023-03-16T02:34:31.216Z,1.00
2023-03-16T02:37:00.837Z,1.00
2023-03-16T02:39:29.698Z,1.00
2023-03-16T02:41:58.181Z,1.10
2023-03-16T02:44:29.151Z,1.10
2023-03-16T02:47:02.328Z,1.10
2023-03-16T02:49:37.487Z,1.20
2023-03-16T02:52:06.718Z,1.10
2023-03-16T02:54:35.077Z,1.10
2023-03-16T02:57:03.527Z,1.10
2023-03-16T02:59:33.017Z,1.10
2023-03-16T03:02:02.477Z,1.10
2023-03-16T03:04:32.976Z,1.10
2023-03-16T03:07:04.969Z,1.10
2023-03-16T03:09:42.106Z,1.00
2023-03-16T03:12:10.557Z,1.10
2023-03-16T03:14:39.156Z,1.10
2023-03-16T03:17:10.176Z,1.10
2023-03-16T03:19:38.860Z,1.10
2023-03-16T03:22:07.570Z,1.10
2023-03-16T03:24:36.357Z,1.10
2023-03-16T03:27:05.828Z,1.10
2023-03-16T03:29:36.057Z,1.10
2023-03-16T03:32:05.324Z,1.10
2023-03-16T03:34:34.759Z,1.10
2023-03-16T03:37:02.822Z,1.10
2023-03-16T03:39:32.705Z,1.20
2023-03-16T03:42:03.255Z,1.20
2023-03-16T03:44:34.607Z,1.20
2023-03-16T03:47:02.931Z,1.10
2023-03-16T03:49:31.331Z,1.10
2023-03-16T03:52:02.693Z,1.20
2023-03-16T03:54:30.801Z,1.20
2023-03-16T03:57:00.404Z,1.10
2023-03-16T03:59:28.690Z,1.10
2023-03-16T04:02:13.298Z,1.10
2023-03-16T04:04:46.732Z,1.10
2023-03-16T04:07:17.149Z,1.10
2023-03-16T04:09:46.883Z,1.10
2023-03-16T04:12:32.500Z,1.10
2023-03-16T04:15:00.557Z,1.10
2023-03-16T04:17:35.398Z,1.10
2023-03-16T04:20:13.214Z,1.10
2023-03-16T04:22:43.828Z,1.10
2023-03-16T04:25:13.157Z,1.00
2023-03-16T04:27:42.033Z,1.00
2023-03-16T04:30:13.622Z,1.00
2023-03-16T04:32:46.749Z,1.00
2023-03-16T04:35:20.133Z,0.90
2023-03-16T04:37:53.755Z,0.90
2023-03-16T04:40:27.265Z,0.90
2023-03-16T04:43:04.817Z,0.90
2023-03-16T04:45:35.078Z,0.90
2023-03-16T04:48:03.554Z,0.90
2023-03-16T04:50:32.079Z,0.90
2023-03-16T04:53:04.427Z,0.90
2023-03-16T04:55:33.718Z,0.90
2023-03-16T04:58:02.629Z,0.90
2023-03-16T05:00:35.190Z,0.80
2023-03-16T05:03:10.058Z,0.80
2023-03-16T05:05:38.619Z,0.80
2023-03-16T05:08:08.977Z,0.80
2023-03-16T05:10:39.967Z,0.90
2023-03-16T05:13:08.285Z,0.80
2023-03-16T05:15:36.887Z,0.80
2023-03-16T05:18:22.079Z,0.80
2023-03-16T05:20:52.037Z,0.80
2023-03-16T05:23:21.813Z,0.80
2023-03-16T05:25:59.737Z,0.80
2023-03-16T05:28:29.114Z,0.90
2023-03-16T05:31:03.742Z,0.80
2023-03-16T05:33:38.269Z,0.90
2023-03-16T05:36:10.969Z,0.90
2023-03-16T05:38:43.863Z,0.90
2023-03-16T05:41:18.180Z,1.00
2023-03-16T05:43:57.550Z,1.00
2023-03-16T05:46:29.526Z,1.00
2023-03-16T05:48:58.374Z,1.10
2023-03-16T05:51:27.436Z,1.10
2023-03-16T05:53:57.588Z,1.20
2023-03-16T05:56:43.172Z,1.20
2023-03-16T05:59:11.422Z,1.30
2023-03-16T06:01:40.229Z,1.30
2023-03-16T06:04:08.933Z,1.40
2023-03-16T06:06:41.344Z,1.40
2023-03-16T06:09:21.056Z,1.40
2023-03-16T06:11:49.192Z,1.50
2023-03-16T06:14:18.920Z,1.50
2023-03-16T06:16:47.421Z,1.50
2023-03-16T06:19:17.220Z,1.50
2023-03-16T06:21:47.594Z,1.60
2023-03-16T06:24:15.944Z,1.60
2023-03-16T06:26:45.404Z,1.60
2023-03-16T06:29:14.405Z,1.60
2023-03-16T06:31:43.308Z,1.60
2023-03-16T06:34:12.412Z,1.60
2023-03-16T06:36:41.312Z,1.60
2023-03-16T06:39:14.313Z,1.70
2023-03-16T06:41:45.862Z,1.70
2023-03-16T06:44:16.786Z,1.70
2023-03-16T06:46:57.964Z,1.60
2023-03-16T06:49:26.107Z,1.60
2023-03-16T06:51:54.480Z,1.60
2023-03-16T06:54:25.139Z,1.70
2023-03-16T06:56:54.545Z,1.70
2023-03-16T06:59:23.496Z,1.70
2023-03-16T07:01:52.486Z,1.80
2023-03-16T07:04:20.760Z,1.90
2023-03-16T07:06:48.920Z,1.90
2023-03-16T07:09:17.981Z,2.00
2023-03-16T07:11:46.101Z,2.10
2023-03-16T07:14:15.472Z,2.20
2023-03-16T07:16:43.728Z,2.20
2023-03-16T07:19:12.149Z,2.30
2023-03-16T07:21:41.883Z,2.40
2023-03-16T07:24:15.225Z,2.50
2023-03-16T07:26:43.534Z,2.60
2023-03-16T07:29:17.227Z,2.70
2023-03-16T07:31:45.781Z,2.90
2023-03-16T07:34:19.933Z,3.10
2023-03-16T07:36:52.877Z,3.30
2023-03-16T07:39:22.229Z,3.40
2023-03-16T07:41:52.315Z,3.60
2023-03-16T07:44:33.690Z,3.70
2023-03-16T07:47:01.983Z,3.70
2023-03-16T07:49:32.055Z,3.90
2023-03-16T07:52:01.808Z,4.00
2023-03-16T07:54:37.715Z,4.00
2023-03-16T07:57:07.852Z,4.10
2023-03-16T07:59:46.978Z,4.30
2023-03-16T08:02:20.077Z,4.40
2023-03-16T08:04:49.082Z,4.60
2023-03-16T08:07:17.512Z,4.80
2023-03-16T08:09:56.747Z,5.00
2023-03-16T08:12:30.414Z,5.10
2023-03-16T08:15:00.113Z,5.20
2023-03-16T08:17:31.803Z,5.20
2023-03-16T08:20:01.988Z,5.30
2023-03-16T08:22:31.017Z,5.40
2023-03-16T08:24:59.162Z,5.50
2023-03-16T08:27:29.512Z,5.60
2023-03-16T08:30:05.783Z,5.70
2023-03-16T08:32:36.137Z,5.80
2023-03-16T08:35:04.598Z,5.80
2023-03-16T08:37:32.853Z,6.00
2023-03-16T08:40:01.821Z,6.20
2023-03-16T08:42:31.309Z,6.30
2023-03-16T08:45:12.330Z,6.60
2023-03-16T08:47:44.351Z,6.80
2023-03-16T08:50:15.553Z,6.80
2023-03-16T08:52:43.623Z,6.90
2023-03-16T08:55:13.375Z,6.90
2023-03-16T08:57:41.748Z,7.00
2023-03-16T09:00:14.214Z,7.10
2023-03-16T09:02:43.409Z,7.20
2023-03-16T09:05:13.356Z,7.20
2023-03-16T09:07:41.438Z,7.30
2023-03-16T09:10:13.370Z,7.30
2023-03-16T09:12:42.728Z,7.30
2023-03-16T09:15:14.736Z,7.30
2023-03-16T09:17:43.684Z,7.40
2023-03-16T09:20:22.381Z,7.50
2023-03-16T09:22:50.744Z,7.60
2023-03-16T09:25:20.072Z,7.70
2023-03-16T09:27:48.128Z,7.70
2023-03-16T09:30:18.151Z,7.60
2023-03-16T09:32:48.626Z,7.50
2023-03-16T09:35:17.051Z,7.40
2023-03-16T09:38:01.165Z,7.30
2023-03-16T09:40:34.014Z,7.30
2023-03-16T09:43:39.690Z,7.30
2023-03-16T09:46:13.371Z,7.40
2023-03-16T09:48:42.375Z,7.40
2023-03-16T09:51:24.231Z,7.60
2023-03-16T09:53:58.105Z,7.60
2023-03-16T09:56:31.893Z,7.70
2023-03-16T10:00:13.616Z,7.90
2023-03-16T10:03:24.996Z,8.00
2023-03-16T10:06:21.914Z,8.20
2023-03-16T10:14:42.615Z,8.40
2023-03-16T10:17:16.874Z,8.40
2023-03-16T10:19:52.324Z,8.60
2023-03-16T10:22:23.528Z,8.90
2023-03-16T10:25:03.441Z,9.10
2023-03-16T10:27:33.854Z,9.40
2023-03-16T10:30:07.349Z,9.60
2023-03-16T10:32:36.662Z,9.80
2023-03-16T10:35:21.420Z,9.90
2023-03-16T10:37:50.244Z,10.00
2023-03-16T10:40:20.364Z,10.00
2023-03-16T10:42:48.361Z,10.10
2023-03-16T10:45:25.375Z,10.10
2023-03-16T10:47:53.438Z,10.10
2023-03-16T10:50:27.765Z,10.10
2023-03-16T10:52:58.259Z,10.10
2023-03-16T10:55:30.632Z,10.20
2023-03-16T10:57:59.492Z,10.20
2023-03-16T11:00:31.170Z,10.10
2023-03-16T11:03:01.388Z,10.10
2023-03-16T11:05:33.529Z,10.00
2023-03-16T11:08:09.379Z,10.00
2023-03-16T11:10:54.731Z,10.00
2023-03-16T11:13:27.925Z,9.90
2023-03-16T11:16:00.276Z,9.90
2023-03-16T11:18:31.736Z,9.80
2023-03-16T11:21:07.371Z,9.80
2023-03-16T11:23:40.054Z,9.80
2023-03-16T11:26:19.848Z,9.90
2023-03-16T11:28:53.293Z,9.90
2023-03-16T11:31:27.583Z,9.90
2023-03-16T11:33:57.481Z,9.90
2023-03-16T11:36:37.646Z,10.00
2023-03-16T11:39:13.135Z,10.10
2023-03-16T11:41:54.532Z,10.20
2023-03-16T11:44:30.331Z,10.30
2023-03-16T11:47:07.373Z,10.40
2023-03-16T11:49:49.650Z,10.50
2023-03-16T11:52:28.122Z,10.60
2023-03-16T11:55:04.477Z,10.80
2023-03-16T11:57:44.207Z,10.90
2023-03-16T12:00:23.014Z,11.00
2023-03-16T12:03:03.351Z,11.10
2023-03-16T12:05:45.028Z,11.10
2023-03-16T12:08:55.211Z,11.20
2023-03-16T12:11:26.469Z,11.30
2023-03-16T12:14:17.602Z,11.30
2023-03-16T12:16:51.300Z,11.40
2023-03-16T12:19:24.796Z,11.40
2023-03-16T12:22:04.165Z,11.60
2023-03-16T12:24:42.505Z,11.60
2023-03-16T12:27:16.092Z,11.70
2023-03-16T12:29:56.952Z,11.60
2023-03-16T12:32:37.094Z,11.50
2023-03-16T12:35:19.413Z,11.50
2023-03-16T12:37:58.470Z,11.40
2023-03-16T12:40:34.889Z,11.30
2023-03-16T12:43:38.408Z,11.30
2023-03-16T12:46:12.410Z,11.20
2023-03-16T12:48:44.647Z,11.10
2023-03-16T12:51:12.902Z,11.20
2023-03-16T12:53:46.772Z,11.10
2023-03-16T12:56:18.835Z,11.20
2023-03-16T12:58:49.641Z,11.40
2023-03-16T13:01:20.022Z,11.30
2023-03-16T13:03:50.908Z,11.40
2023-03-16T13:06:22.766Z,11.50
2023-03-16T13:08:56.815Z,11.50
2023-03-16T13:11:27.050Z,11.70
2023-03-16T13:14:12.749Z,11.80
2023-03-16T13:16:41.635Z,11.90
2023-03-16T13:19:27.330Z,12.00
2023-03-16T13:22:04.504Z,12.20
2023-03-16T13:24:41.104Z,12.30
2023-03-16T13:27:23.370Z,12.40
2023-03-16T13:29:56.873Z,12.50
2023-03-16T13:32:28.595Z,12.50
2023-03-16T13:35:00.137Z,12.60
2023-03-16T13:37:29.872Z,12.60
2023-03-16T13:39:59.951Z,12.70
2023-03-16T13:42:32.193Z,12.70
2023-03-16T13:45:09.070Z,12.80
2023-03-16T13:47:37.420Z,12.80
2023-03-16T13:50:06.553Z,13.00
2023-03-16T13:52:36.568Z,12.90
2023-03-16T13:55:15.403Z,13.00
2023-03-16T13:57:46.425Z,13.10
2023-03-16T14:00:20.238Z,13.20
2023-03-16T14:02:52.944Z,13.30
2023-03-16T14:05:24.518Z,13.30
2023-03-16T14:07:55.760Z,13.30
2023-03-16T14:10:25.314Z,13.40
2023-03-16T14:12:55.868Z,13.40
2023-03-16T14:15:27.428Z,13.40
2023-03-16T14:18:10.025Z,13.50
2023-03-16T14:20:41.423Z,13.70
2023-03-16T14:23:19.216Z,13.70
2023-03-16T14:25:49.367Z,13.70
2023-03-16T14:28:21.309Z,13.80
2023-03-16T14:30:53.768Z,13.80
2023-03-16T14:33:29.855Z,13.70
2023-03-16T14:35:59.535Z,13.70
2023-03-16T14:38:33.304Z,13.80
2023-03-16T14:41:07.508Z,13.60
2023-03-16T14:43:41.226Z,13.60
2023-03-16T14:46:13.570Z,13.50
2023-03-16T14:48:42.076Z,13.40
2023-03-16T14:51:14.748Z,13.40
2023-03-16T14:53:42.810Z,13.30
2023-03-16T14:56:14.438Z,13.30
2023-03-16T14:58:43.989Z,13.20
2023-03-16T15:01:17.899Z,13.10
2023-03-16T15:03:46.645Z,13.70
2023-03-16T15:06:15.172Z,13.00
2023-03-16T15:08:46.142Z,13.00
2023-03-16T15:11:21.188Z,12.90
2023-03-16T15:14:03.800Z,12.90
2023-03-16T15:16:34.188Z,12.90
2023-03-16T15:19:02.778Z,12.90
2023-03-16T15:21:31.021Z,12.80
2023-03-16T15:23:59.636Z,12.80
2023-03-16T15:26:30.729Z,12.70
2023-03-16T15:29:00.465Z,12.80
2023-03-16T15:31:28.669Z,12.80
2023-03-16T15:33:56.798Z,12.70
2023-03-16T15:36:25.054Z,12.70
2023-03-16T15:38:55.093Z,12.60
2023-03-16T15:41:30.165Z,12.60
2023-03-16T15:44:02.718Z,12.50
2023-03-16T15:46:31.055Z,12.60
2023-03-16T15:48:59.081Z,12.50
2023-03-16T15:51:30.180Z,13.30
2023-03-16T15:54:00.967Z,12.50
2023-03-16T15:56:36.608Z,12.30
2023-03-16T15:59:18.000Z,12.30
2023-03-16T16:01:51.136Z,12.20
2023-03-16T16:04:21.670Z,12.20
2023-03-16T16:06:52.884Z,12.10
2023-03-16T16:09:21.005Z,12.10
2023-03-16T16:11:50.569Z,12.00
2023-03-16T16:14:24.641Z,12.10
2023-03-16T16:16:54.271Z,12.00
2023-03-16T16:19:22.658Z,12.00
2023-03-16T16:21:51.033Z,11.90
2023-03-16T16:24:19.283Z,11.90
2023-03-16T16:26:54.356Z,11.90
2023-03-16T16:29:27.394Z,11.90
2023-03-16T16:31:55.762Z,11.90
2023-03-16T16:34:25.608Z,11.80
2023-03-16T16:36:54.099Z,11.80
2023-03-16T16:39:22.946Z,11.80
2023-03-16T16:41:52.264Z,11.80
2023-03-16T16:44:23.616Z,11.70
2023-03-16T16:46:54.325Z,11.90
2023-03-16T16:49:24.265Z,11.50
2023-03-16T16:51:53.071Z,11.50
2023-03-16T16:54:22.877Z,11.30
2023-03-16T16:56:53.936Z,11.20
2023-03-16T16:59:23.820Z,11.00
2023-03-16T17:01:54.873Z,10.90
2023-03-16T17:04:25.261Z,10.90
2023-03-16T17:06:55.656Z,10.70
2023-03-16T17:09:24.267Z,10.60
2023-03-16T17:11:54.179Z,10.50
2023-03-16T17:14:23.827Z,10.40
2023-03-16T17:16:53.427Z,10.30
2023-03-16T17:19:23.487Z,10.30
2023-03-16T17:21:52.612Z,10.30
2023-03-16T17:24:20.987Z,10.00
2023-03-16T17:26:52.365Z,10.00
2023-03-16T17:29:23.558Z,9.90
2023-03-16T17:31:53.224Z,9.90
2023-03-16T17:34:23.763Z,9.70
2023-03-16T17:36:52.316Z,9.60
2023-03-16T17:39:22.508Z,9.50
2023-03-16T17:41:56.025Z,9.40
2023-03-16T17:44:25.221Z,9.40
2023-03-16T17:46:54.834Z,9.30
2023-03-16T17:49:28.124Z,9.20
2023-03-16T17:51:56.670Z,9.10
2023-03-16T17:54:24.715Z,9.30
2023-03-16T17:56:54.004Z,9.10
2023-03-16T17:59:24.033Z,9.00
2023-03-16T18:01:52.428Z,9.00
2023-03-16T18:04:24.328Z,8.90
2023-03-16T18:06:53.002Z,9.40
2023-03-16T18:09:22.121Z,8.80
2023-03-16T18:11:52.248Z,8.70
2023-03-16T18:14:34.668Z,8.70
2023-03-16T18:17:03.352Z,8.70
2023-03-16T18:19:33.598Z,8.70
2023-03-16T18:22:01.743Z,8.60
2023-03-16T18:24:29.802Z,8.60
2023-03-16T18:26:57.924Z,8.50
2023-03-16T18:29:26.169Z,8.70
2023-03-16T18:31:58.378Z,8.40
2023-03-16T18:34:36.324Z,8.40
2023-03-16T18:37:06.202Z,8.30
2023-03-16T18:39:34.812Z,8.30
2023-03-16T18:42:03.765Z,8.30
2023-03-16T18:44:32.738Z,8.70
2023-03-16T18:47:04.471Z,8.50
2023-03-16T18:49:35.528Z,8.20
2023-03-16T18:52:12.737Z,8.20
2023-03-16T18:54:45.414Z,8.10
2023-03-16T18:57:18.347Z,8.10
2023-03-16T18:59:47.289Z,8.00
2023-03-16T19:02:28.637Z,8.10
2023-03-16T19:05:00.729Z,7.90
2023-03-16T19:07:34.762Z,7.90
2023-03-16T19:10:08.561Z,7.80
2023-03-16T19:12:37.435Z,7.80
2023-03-16T19:15:19.745Z,7.80
2023-03-16T19:17:48.119Z,7.80
2023-03-16T19:20:17.753Z,7.90
2023-03-16T19:22:49.050Z,7.80
2023-03-16T19:25:24.022Z,7.70
2023-03-16T19:27:52.374Z,7.70
2023-03-16T19:30:24.879Z,7.70
2023-03-16T19:32:53.546Z,7.70
2023-03-16T19:35:25.442Z,7.80
2023-03-16T19:37:58.382Z,7.70
2023-03-16T19:40:28.483Z,7.70
2023-03-16T19:42:57.166Z,7.70
2023-03-16T19:45:29.898Z,7.70
2023-03-16T19:47:58.374Z,7.70
2023-03-16T19:50:27.560Z,7.80
2023-03-16T19:52:59.184Z,7.80
2023-03-16T19:55:32.317Z,7.80
2023-03-16T19:58:02.771Z,7.90
2023-03-16T20:00:31.530Z,7.80
2023-03-16T20:02:59.865Z,7.90
2023-03-16T20:05:30.550Z,7.80
2023-03-16T20:08:00.476Z,7.80
2023-03-16T20:10:33.346Z,7.80
2023-03-16T20:13:02.807Z,7.80
2023-03-16T20:15:33.675Z,7.70
2023-03-16T20:18:02.451Z,8.00
2023-03-16T20:20:33.572Z,7.60
2023-03-16T20:23:02.130Z,7.60
2023-03-16T20:25:35.174Z,7.50
2023-03-16T20:28:05.462Z,7.50
2023-03-16T20:30:34.348Z,7.40
2023-03-16T20:33:06.271Z,7.40
2023-03-16T20:35:34.330Z,7.30
2023-03-16T20:38:02.450Z,7.40
2023-03-16T20:40:32.142Z,7.60
2023-03-16T20:43:00.355Z,7.30
2023-03-16T20:45:30.513Z,7.60
2023-03-16T20:48:00.232Z,7.30
2023-03-16T20:50:30.704Z,7.20
2023-03-16T20:52:58.916Z,7.30
2023-03-16T20:55:30.034Z,7.20
2023-03-16T20:57:59.839Z,7.20
2023-03-16T21:00:33.198Z,7.20
2023-03-16T21:03:04.970Z,7.20
2023-03-16T21:05:33.981Z,7.50
2023-03-16T21:08:01.960Z,7.20
2023-03-16T21:10:30.408Z,7.20
2023-03-16T21:13:00.893Z,7.10
2023-03-16T21:15:31.705Z,7.10
2023-03-16T21:18:03.020Z,7.10
2023-03-16T21:20:34.186Z,7.10
2023-03-16T21:23:03.408Z,7.10
2023-03-16T21:25:32.865Z,7.10
2023-03-16T21:28:04.383Z,7.10
2023-03-16T21:30:36.068Z,7.00
2023-03-16T21:33:04.540Z,6.90
2023-03-16T21:35:35.171Z,6.90
2023-03-16T21:38:12.850Z,6.90
2023-03-16T21:40:41.071Z,6.90
2023-03-16T21:43:11.944Z,6.90
2023-03-16T21:45:41.235Z,6.90
2023-03-16T21:48:15.677Z,7.00
2023-03-16T21:50:44.530Z,7.10
2023-03-16T21:53:22.814Z,6.90
2023-03-16T21:55:52.036Z,7.00
2023-03-16T21:58:22.171Z,6.90
2023-03-16T22:00:51.753Z,6.90
2023-03-16T22:03:28.273Z,6.90
2023-03-16T22:05:59.764Z,7.20
2023-03-16T22:08:29.491Z,6.90
2023-03-16T22:10:58.901Z,6.80
2023-03-16T22:13:29.060Z,6.80
2023-03-16T22:15:59.291Z,6.70
2023-03-16T22:18:30.842Z,6.70
2023-03-16T22:21:00.717Z,6.70
2023-03-16T22:23:32.028Z,6.60
2023-03-16T22:26:00.517Z,6.60
2023-03-16T22:28:32.874Z,6.60
2023-03-16T22:31:03.486Z,6.50
2023-03-16T22:33:35.789Z,6.50
2023-03-16T22:36:08.366Z,6.50
2023-03-16T22:38:36.772Z,6.40
2023-03-16T22:41:05.753Z,6.40
2023-03-16T22:43:38.282Z,6.40
2023-03-16T22:46:06.687Z,6.50
2023-03-16T22:48:34.817Z,6.50
2023-03-16T22:51:05.326Z,7.00
2023-03-16T22:53:40.955Z,6.50
2023-03-16T22:56:11.409Z,6.60
2023-03-16T22:58:43.968Z,6.60
2023-03-16T23:01:18.405Z,6.60
2023-03-16T23:03:47.504Z,6.60
2023-03-16T23:06:22.563Z,6.60
2023-03-16T23:08:51.658Z,6.60
2023-03-16T23:11:23.606Z,6.60
2023-03-16T23:13:54.177Z,6.60
2023-03-16T23:16:24.128Z,6.60
2023-03-16T23:18:52.906Z,6.60
2023-03-16T23:21:22.690Z,6.50
2023-03-16T23:24:03.037Z,6.60
2023-03-16T23:26:32.853Z,6.60
2023-03-16T23:29:02.357Z,6.50
2023-03-16T23:31:33.766Z,6.50
2023-03-16T23:34:01.885Z,6.50
2023-03-16T23:36:30.179Z,6.50
2023-03-16T23:38:58.162Z,6.50
2023-03-16T23:41:26.498Z,6.50
2023-03-16T23:43:55.301Z,6.50
2023-03-16T23:46:27.389Z,6.60
2023-03-16T23:48:58.069Z,6.60
2023-03-16T23:51:29.147Z,6.60
2023-03-16T23:53:58.962Z,6.60
2023-03-16T23:56:27.816Z,6.70
2023-03-16T23:58:56.203Z,6.60
